createdAt,value
2017-12-20T00:00:08.465Z,38.35
2017-12-20T00:01:17.679Z,38.35
2017-12-20T00:02:26.900Z,38.56
2017-12-20T00:03:35.876Z,38.74
2017-12-20T00:04:44.830Z,38.45
2017-12-20T00:05:54.305Z,38.45
2017-12-20T00:07:03.616Z,38.56
2017-12-20T00:08:12.562Z,38.35
2017-12-20T00:09:21.499Z,38.64
2017-12-20T00:10:30.974Z,38.54
2017-12-20T00:11:40.697Z,38.45
2017-12-20T00:12:49.897Z,38.45
2017-12-20T00:13:59.109Z,38.54
2017-12-20T00:15:08.089Z,38.54
2017-12-20T00:16:17.285Z,38.64
2017-12-20T00:17:26.500Z,38.45
2017-12-20T00:18:35.967Z,38.56
2017-12-20T00:19:44.907Z,38.56
2017-12-20T00:20:53.856Z,38.64
2017-12-20T00:22:03.049Z,38.64
2017-12-20T00:23:12.274Z,38.64
2017-12-20T00:24:21.264Z,38.54
2017-12-20T00:25:30.736Z,38.64
2017-12-20T00:26:39.430Z,38.54
2017-12-20T00:27:48.126Z,38.64
2017-12-20T00:28:57.374Z,38.74
2017-12-20T00:30:06.588Z,38.54
2017-12-20T00:31:15.810Z,38.74
2017-12-20T00:32:24.488Z,38.45
2017-12-20T00:33:33.717Z,38.37
2017-12-20T00:34:43.187Z,38.45
2017-12-20T00:35:53.005Z,38.45
2017-12-20T00:37:01.942Z,38.45
2017-12-20T00:38:10.636Z,38.45
2017-12-20T00:39:19.642Z,38.54
2017-12-20T00:40:28.598Z,38.54
2017-12-20T00:41:37.825Z,38.74
2017-12-20T00:42:47.285Z,38.84
2017-12-20T00:43:56.515Z,38.54
2017-12-20T00:45:05.764Z,38.54
2017-12-20T00:46:14.704Z,38.45
2017-12-20T00:47:23.655Z,38.64
2017-12-20T00:48:32.605Z,38.64
2017-12-20T00:49:41.841Z,38.45
2017-12-20T00:50:50.783Z,38.84
2017-12-20T00:52:00.246Z,38.84
2017-12-20T00:53:09.462Z,38.64
2017-12-20T00:54:18.669Z,38.84
2017-12-20T00:55:27.609Z,38.74
2017-12-20T00:56:36.835Z,38.93
2017-12-20T00:57:45.818Z,38.74
2017-12-20T00:58:55.030Z,38.64
2017-12-20T01:00:04.541Z,38.84
2017-12-20T01:01:13.232Z,38.64
2017-12-20T01:02:22.171Z,38.64
2017-12-20T01:03:31.131Z,38.74
2017-12-20T01:04:39.835Z,38.74
2017-12-20T01:05:49.563Z,38.74
2017-12-20T01:06:58.504Z,38.84
2017-12-20T01:08:07.719Z,38.74
2017-12-20T01:09:16.958Z,38.84
2017-12-20T01:10:25.922Z,38.84
2017-12-20T01:11:35.120Z,39.03
2017-12-20T01:12:44.050Z,39.12
2017-12-20T01:13:53.561Z,39.12
2017-12-20T01:15:03.543Z,39.12
2017-12-20T01:16:12.740Z,38.93
2017-12-20T01:17:21.944Z,38.84
2017-12-20T01:18:31.412Z,38.93
2017-12-20T01:19:40.654Z,38.93
2017-12-20T01:20:49.869Z,39.22
2017-12-20T01:21:58.869Z,39.31
2017-12-20T01:23:08.348Z,39.22
2017-12-20T01:24:17.890Z,39.22
2017-12-20T01:25:27.139Z,38.93
2017-12-20T01:26:36.625Z,38.84
2017-12-20T01:27:45.818Z,39.12
2017-12-20T01:28:55.277Z,39.12
2017-12-20T01:30:04.752Z,39.22
2017-12-20T01:31:13.691Z,39.22
2017-12-20T01:32:22.959Z,39.31
2017-12-20T01:33:32.423Z,39.31
2017-12-20T01:34:41.945Z,39.31
2017-12-20T01:35:50.898Z,39.31
2017-12-20T01:37:00.107Z,39.31
2017-12-20T01:38:09.206Z,39.31
2017-12-20T01:39:18.429Z,39.31
2017-12-20T01:40:27.719Z,39.22
2017-12-20T01:41:36.771Z,39.22
2017-12-20T01:42:45.988Z,39.22
2017-12-20T01:43:55.202Z,39.31
2017-12-20T01:45:04.202Z,39.31
2017-12-20T01:46:13.683Z,39.22
2017-12-20T01:47:22.674Z,39.31
2017-12-20T01:48:31.923Z,39.31
2017-12-20T01:49:41.409Z,39.31
2017-12-20T01:50:50.075Z,39.22
2017-12-20T01:51:59.865Z,39.31
2017-12-20T01:53:09.112Z,39.31
2017-12-20T01:54:18.425Z,39.31
2017-12-20T01:55:27.891Z,39.31
2017-12-20T01:56:36.849Z,39.31
2017-12-20T01:57:45.819Z,39.22
2017-12-20T01:58:55.311Z,39.31
2017-12-20T02:00:04.508Z,39.31
2017-12-20T02:01:13.713Z,39.31
2017-12-20T02:02:22.405Z,39.22
2017-12-20T02:03:31.615Z,39.31
2017-12-20T02:04:40.819Z,39.31
2017-12-20T02:05:49.792Z,39.31
2017-12-20T02:06:58.466Z,39.31
2017-12-20T02:08:07.684Z,39.31
2017-12-20T02:09:16.366Z,39.31
2017-12-20T02:10:25.374Z,39.31
2017-12-20T02:11:34.570Z,39.31
2017-12-20T02:12:43.805Z,39.31
2017-12-20T02:13:52.482Z,39.31
2017-12-20T02:15:01.761Z,39.31
2017-12-20T02:16:11.235Z,39.22
2017-12-20T02:17:20.741Z,39.31
2017-12-20T02:18:30.241Z,39.31
2017-12-20T02:19:38.928Z,39.22
2017-12-20T02:20:48.129Z,39.31
2017-12-20T02:21:57.335Z,39.31
2017-12-20T02:23:06.535Z,39.22
2017-12-20T02:24:15.738Z,39.22
2017-12-20T02:25:24.948Z,39.31
2017-12-20T02:26:34.158Z,39.22
2017-12-20T02:27:43.101Z,39.12
2017-12-20T02:28:52.355Z,39.31
2017-12-20T02:30:02.050Z,39.31
2017-12-20T02:31:11.243Z,39.12
2017-12-20T02:32:20.979Z,39.31
2017-12-20T02:33:30.207Z,39.31
2017-12-20T02:34:39.656Z,39.31
2017-12-20T02:35:48.608Z,39.31
2017-12-20T02:36:57.568Z,39.31
2017-12-20T02:38:06.791Z,39.31
2017-12-20T02:39:16.276Z,39.31
2017-12-20T02:40:24.966Z,39.31
2017-12-20T02:41:34.182Z,39.22
2017-12-20T02:42:43.123Z,39.22
2017-12-20T02:43:52.635Z,39.22
2017-12-20T02:45:01.858Z,39.22
2017-12-20T02:46:10.842Z,39.22
2017-12-20T02:47:19.804Z,39.22
2017-12-20T02:48:28.509Z,39.12
2017-12-20T02:49:37.970Z,39.22
2017-12-20T02:50:46.961Z,39.31
2017-12-20T02:51:56.433Z,39.22
2017-12-20T02:53:05.943Z,39.22
2017-12-20T02:54:14.902Z,39.31
2017-12-20T02:55:23.863Z,39.22
2017-12-20T02:56:33.100Z,39.12
2017-12-20T02:57:42.306Z,39.22
2017-12-20T02:58:51.284Z,39.22
2017-12-20T03:00:00.753Z,39.22
2017-12-20T03:01:09.995Z,39.22
2017-12-20T03:02:18.930Z,39.31
2017-12-20T03:03:27.619Z,39.22
2017-12-20T03:04:36.571Z,39.22
2017-12-20T03:05:45.824Z,39.31
2017-12-20T03:06:54.506Z,39.31
2017-12-20T03:08:04.246Z,39.31
2017-12-20T03:09:13.508Z,39.22
2017-12-20T03:10:22.438Z,39.22
2017-12-20T03:11:31.918Z,39.31
2017-12-20T03:12:41.119Z,39.22
2017-12-20T03:13:50.851Z,39.22
2017-12-20T03:15:00.083Z,39.22
2017-12-20T03:16:09.559Z,39.22
2017-12-20T03:17:18.497Z,39.22
2017-12-20T03:18:27.709Z,39.22
2017-12-20T03:19:36.933Z,39.22
2017-12-20T03:20:45.628Z,39.12
2017-12-20T03:21:54.854Z,39.31
2017-12-20T03:23:03.807Z,39.31
2017-12-20T03:24:13.287Z,39.22
2017-12-20T03:25:22.258Z,39.22
2017-12-20T03:26:30.961Z,39.22
2017-12-20T03:27:40.164Z,39.22
2017-12-20T03:28:49.123Z,39.12
2017-12-20T03:29:58.076Z,39.31
2017-12-20T03:31:07.311Z,39.22
2017-12-20T03:32:16.021Z,39.31
2017-12-20T03:33:25.760Z,39.22
2017-12-20T03:34:35.310Z,39.31
2017-12-20T03:35:44.278Z,39.12
2017-12-20T03:36:53.484Z,39.31
2017-12-20T03:38:02.437Z,39.31
2017-12-20T03:39:11.372Z,39.31
2017-12-20T03:40:20.839Z,39.41
2017-12-20T03:41:30.332Z,39.22
2017-12-20T03:42:39.529Z,39.22
2017-12-20T03:43:48.991Z,39.31
2017-12-20T03:44:58.731Z,39.31
2017-12-20T03:46:07.416Z,39.31
2017-12-20T03:47:16.634Z,39.41
2017-12-20T03:48:25.597Z,39.22
2017-12-20T03:49:34.265Z,39.41
2017-12-20T03:50:42.975Z,39.22
2017-12-20T03:51:52.172Z,39.22
2017-12-20T03:53:00.882Z,39.31
2017-12-20T03:54:09.823Z,39.22
2017-12-20T03:55:18.520Z,39.31
2017-12-20T03:56:27.469Z,39.22
2017-12-20T03:57:36.980Z,39.22
2017-12-20T03:58:45.922Z,39.31
2017-12-20T03:59:54.886Z,39.31
2017-12-20T04:01:04.377Z,39.31
2017-12-20T04:02:13.314Z,39.22
2017-12-20T04:03:22.529Z,39.31
2017-12-20T04:04:31.751Z,39.31
2017-12-20T04:05:40.725Z,39.31
2017-12-20T04:06:50.275Z,39.31
2017-12-20T04:07:59.529Z,39.22
2017-12-20T04:09:08.488Z,39.31
2017-12-20T04:10:17.702Z,39.22
2017-12-20T04:11:26.653Z,39.31
2017-12-20T04:12:35.600Z,39.31
2017-12-20T04:13:44.569Z,39.12
2017-12-20T04:14:54.060Z,39.31
2017-12-20T04:16:03.268Z,39.22
2017-12-20T04:17:12.224Z,39.12
2017-12-20T04:18:21.153Z,39.31
2017-12-20T04:19:30.168Z,39.22
2017-12-20T04:20:39.133Z,39.12
2017-12-20T04:21:48.864Z,39.12
2017-12-20T04:22:57.819Z,39.12
2017-12-20T04:24:07.053Z,39.22
2017-12-20T04:25:15.740Z,39.22
2017-12-20T04:26:25.499Z,39.12
2017-12-20T04:27:34.454Z,39.12
2017-12-20T04:28:43.423Z,39.22
2017-12-20T04:29:52.629Z,39.12
2017-12-20T04:31:01.307Z,39.31
2017-12-20T04:32:10.517Z,39.12
2017-12-20T04:33:19.196Z,39.31
2017-12-20T04:34:28.133Z,39.22
2017-12-20T04:35:37.389Z,39.22
2017-12-20T04:36:46.605Z,39.22
2017-12-20T04:37:55.826Z,39.22
2017-12-20T04:39:04.544Z,39.22
2017-12-20T04:40:13.231Z,39.12
2017-12-20T04:41:22.438Z,39.22
2017-12-20T04:42:31.914Z,39.22
2017-12-20T04:43:40.609Z,39.12
2017-12-20T04:44:49.571Z,39.12
2017-12-20T04:45:58.765Z,39.41
2017-12-20T04:47:07.440Z,39.12
2017-12-20T04:48:16.652Z,39.22
2017-12-20T04:49:25.344Z,39.31
2017-12-20T04:50:34.307Z,39.12
2017-12-20T04:51:43.544Z,39.41
2017-12-20T04:52:52.505Z,39.22
2017-12-20T04:54:01.519Z,39.22
2017-12-20T04:55:11.008Z,39.12
2017-12-20T04:56:20.479Z,39.22
2017-12-20T04:57:29.712Z,39.22
2017-12-20T04:58:38.927Z,39.22
2017-12-20T04:59:48.135Z,39.12
2017-12-20T05:00:57.614Z,39.12
2017-12-20T05:02:06.297Z,39.12
2017-12-20T05:03:15.259Z,39.22
2017-12-20T05:04:24.202Z,39.31
2017-12-20T05:05:33.928Z,39.22
2017-12-20T05:06:43.678Z,39.22
2017-12-20T05:07:52.974Z,39.22
2017-12-20T05:09:02.198Z,39.31
2017-12-20T05:10:11.670Z,39.31
2017-12-20T05:11:21.412Z,39.22
2017-12-20T05:12:30.357Z,39.03
2017-12-20T05:13:39.833Z,39.22
2017-12-20T05:14:48.788Z,39.22
2017-12-20T05:15:58.524Z,39.12
2017-12-20T05:17:08.012Z,39.12
2017-12-20T05:18:17.214Z,39.31
2017-12-20T05:19:26.703Z,39.12
2017-12-20T05:20:35.649Z,39.22
2017-12-20T05:21:44.857Z,39.22
2017-12-20T05:22:53.551Z,39.22
2017-12-20T05:24:02.515Z,39.22
2017-12-20T05:25:11.727Z,39.12
2017-12-20T05:26:20.737Z,39.12
2017-12-20T05:27:30.255Z,39.22
2017-12-20T05:28:39.462Z,39.22
2017-12-20T05:29:48.668Z,39.22
2017-12-20T05:30:57.636Z,39.22
2017-12-20T05:32:06.398Z,39.12
2017-12-20T05:33:15.342Z,39.12
2017-12-20T05:34:24.292Z,39.12
2017-12-20T05:35:33.786Z,39.12
2017-12-20T05:36:42.734Z,39.22
2017-12-20T05:37:51.719Z,39.31
2017-12-20T05:39:01.254Z,39.22
2017-12-20T05:40:10.461Z,38.84
2017-12-20T05:41:19.409Z,38.45
2017-12-20T05:42:28.633Z,38.66
2017-12-20T05:43:38.116Z,38.35
2017-12-20T05:44:47.049Z,38.09
2017-12-20T05:45:56.515Z,38.09
2017-12-20T05:47:05.985Z,38.28
2017-12-20T05:48:14.660Z,38.37
2017-12-20T05:49:24.142Z,37.7
2017-12-20T05:50:33.352Z,37.72
2017-12-20T05:51:42.294Z,37.79
2017-12-20T05:52:51.245Z,37.72
2017-12-20T05:54:00.449Z,37.62
2017-12-20T05:55:10.183Z,37.72
2017-12-20T05:56:19.384Z,37.72
2017-12-20T05:57:28.411Z,37.24
2017-12-20T05:58:37.637Z,37.52
2017-12-20T05:59:47.111Z,37.52
2017-12-20T06:00:56.052Z,37.16
2017-12-20T06:02:05.540Z,37.16
2017-12-20T06:03:15.030Z,37.26
2017-12-20T06:04:23.990Z,37.16
2017-12-20T06:05:33.177Z,36.87
2017-12-20T06:06:42.928Z,36.97
2017-12-20T06:07:52.158Z,37.16
2017-12-20T06:09:01.159Z,36.97
2017-12-20T06:10:10.638Z,37.06
2017-12-20T06:11:19.579Z,36.97
2017-12-20T06:12:28.818Z,36.89
2017-12-20T06:13:38.021Z,36.89
2017-12-20T06:14:46.966Z,36.79
2017-12-20T06:15:55.652Z,36.6
2017-12-20T06:17:04.609Z,36.69
2017-12-20T06:18:13.595Z,36.6
2017-12-20T06:19:22.798Z,36.6
2017-12-20T06:20:31.748Z,36.6
2017-12-20T06:21:41.007Z,36.71
2017-12-20T06:22:49.955Z,36.31
2017-12-20T06:23:59.161Z,36.33
2017-12-20T06:25:08.198Z,36.33
2017-12-20T06:26:17.504Z,36.33
2017-12-20T06:27:26.202Z,36.04
2017-12-20T06:28:35.136Z,36.33
2017-12-20T06:29:44.100Z,36.13
2017-12-20T06:30:53.055Z,36.23
2017-12-20T06:32:02.016Z,35.94
2017-12-20T06:33:10.986Z,36.04
2017-12-20T06:34:20.208Z,35.67
2017-12-20T06:35:29.152Z,35.77
2017-12-20T06:36:38.606Z,35.77
2017-12-20T06:37:48.086Z,35.77
2017-12-20T06:38:56.780Z,35.58
2017-12-20T06:40:05.993Z,35.67
2017-12-20T06:41:14.952Z,35.67
2017-12-20T06:42:24.417Z,35.48
2017-12-20T06:43:33.657Z,35.58
2017-12-20T06:44:43.131Z,35.38
2017-12-20T06:45:52.612Z,35.38
2017-12-20T06:47:01.285Z,35.38
2017-12-20T06:48:10.497Z,35.4
2017-12-20T06:49:19.283Z,35.5
2017-12-20T06:50:28.237Z,35.5
2017-12-20T06:51:37.179Z,35.4
2017-12-20T06:52:46.661Z,35.5
2017-12-20T06:53:56.120Z,35.5
2017-12-20T06:55:05.075Z,35.4
2017-12-20T06:56:14.043Z,35.3
2017-12-20T06:57:23.252Z,35.4
2017-12-20T06:58:32.219Z,35.4
2017-12-20T06:59:41.685Z,35.59
2017-12-20T07:00:51.154Z,35.5
2017-12-20T07:02:00.105Z,35.59
2017-12-20T07:03:09.574Z,35.78
2017-12-20T07:04:18.551Z,35.59
2017-12-20T07:05:27.489Z,35.78
2017-12-20T07:06:36.702Z,35.78
2017-12-20T07:07:45.373Z,35.78
2017-12-20T07:08:54.320Z,35.98
2017-12-20T07:10:03.555Z,35.78
2017-12-20T07:11:12.802Z,35.69
2017-12-20T07:12:22.014Z,35.98
2017-12-20T07:13:30.960Z,36.17
2017-12-20T07:14:40.443Z,36.17
2017-12-20T07:15:49.121Z,36.17
2017-12-20T07:16:58.078Z,35.98
2017-12-20T07:18:07.547Z,36.46
2017-12-20T07:19:17.007Z,36.55
2017-12-20T07:20:26.214Z,36.55
2017-12-20T07:21:35.161Z,36.73
2017-12-20T07:22:44.107Z,36.55
2017-12-20T07:23:53.329Z,36.63
2017-12-20T07:25:02.275Z,36.73
2017-12-20T07:26:11.233Z,36.93
2017-12-20T07:27:20.185Z,37.02
2017-12-20T07:28:29.417Z,37.12
2017-12-20T07:29:38.374Z,37.12
2017-12-20T07:30:47.876Z,37.02
2017-12-20T07:31:57.101Z,37.21
2017-12-20T07:33:05.804Z,37.21
2017-12-20T07:34:14.752Z,37.29
2017-12-20T07:35:23.715Z,37.31
2017-12-20T07:36:32.715Z,37.58
2017-12-20T07:37:41.703Z,37.58
2017-12-20T07:38:51.460Z,37.68
2017-12-20T07:40:00.674Z,37.96
2017-12-20T07:41:09.906Z,37.77
2017-12-20T07:42:19.218Z,37.68
2017-12-20T07:43:28.175Z,37.96
2017-12-20T07:44:37.407Z,37.58
2017-12-20T07:45:46.106Z,37.68
2017-12-20T07:46:55.329Z,37.68
2017-12-20T07:48:04.272Z,37.77
2017-12-20T07:49:13.584Z,37.85
2017-12-20T07:50:23.612Z,37.95
2017-12-20T07:51:32.900Z,37.95
2017-12-20T07:52:41.856Z,38.14
2017-12-20T07:53:50.811Z,38.33
2017-12-20T07:55:00.281Z,38.33
2017-12-20T07:56:09.255Z,38.33
2017-12-20T07:57:18.486Z,38.33
2017-12-20T07:58:27.690Z,38.24
2017-12-20T07:59:36.635Z,38.24
2017-12-20T08:00:45.344Z,38.24
2017-12-20T08:01:54.364Z,38.04
2017-12-20T08:03:03.333Z,38.04
2017-12-20T08:04:12.582Z,38.53
2017-12-20T08:05:21.787Z,38.43
2017-12-20T08:06:30.999Z,38.43
2017-12-20T08:07:40.483Z,38.53
2017-12-20T08:08:49.169Z,38.62
2017-12-20T08:09:58.396Z,38.53
2017-12-20T08:11:07.359Z,38.6
2017-12-20T08:12:16.046Z,38.7
2017-12-20T08:13:25.265Z,38.51
2017-12-20T08:14:34.473Z,38.79
2017-12-20T08:15:43.983Z,38.79
2017-12-20T08:16:52.674Z,38.99
2017-12-20T08:18:01.629Z,38.89
2017-12-20T08:19:10.852Z,38.79
2017-12-20T08:20:19.809Z,39.09
2017-12-20T08:21:29.032Z,39.18
2017-12-20T08:22:38.809Z,39.28
2017-12-20T08:23:48.318Z,39.28
2017-12-20T08:24:57.812Z,39.37
2017-12-20T08:26:07.295Z,39.37
2017-12-20T08:27:16.271Z,39.28
2017-12-20T08:28:25.303Z,39.28
2017-12-20T08:29:34.788Z,39.09
2017-12-20T08:30:43.736Z,38.99
2017-12-20T08:31:52.969Z,38.89
2017-12-20T08:33:02.171Z,39.18
2017-12-20T08:34:11.395Z,39.18
2017-12-20T08:35:20.349Z,38.89
2017-12-20T08:36:29.575Z,38.99
2017-12-20T08:37:38.540Z,38.99
2017-12-20T08:38:47.776Z,38.79
2017-12-20T08:39:57.022Z,38.79
2017-12-20T08:41:06.247Z,38.89
2017-12-20T08:42:16.081Z,39.09
2017-12-20T08:43:24.775Z,39.18
2017-12-20T08:44:34.014Z,39.47
2017-12-20T08:45:43.001Z,38.89
2017-12-20T08:46:52.260Z,39.18
2017-12-20T08:48:01.565Z,39.56
2017-12-20T08:49:10.262Z,39.47
2017-12-20T08:50:19.472Z,39.47
2017-12-20T08:51:28.690Z,39.45
2017-12-20T08:52:37.946Z,39.36
2017-12-20T08:53:47.174Z,39.37
2017-12-20T08:54:55.854Z,39.26
2017-12-20T08:56:05.052Z,39.37
2017-12-20T08:57:13.993Z,39.45
2017-12-20T08:58:23.286Z,39.47
2017-12-20T08:59:32.500Z,39.36
2017-12-20T09:00:41.484Z,39.45
2017-12-20T09:01:50.716Z,39.54
2017-12-20T09:02:59.943Z,39.54
2017-12-20T09:04:09.408Z,39.36
2017-12-20T09:05:18.093Z,39.36
2017-12-20T09:06:27.055Z,39.36
2017-12-20T09:07:36.683Z,39.36
2017-12-20T09:08:45.653Z,39.45
2017-12-20T09:09:54.747Z,39.45
2017-12-20T09:11:03.623Z,39.36
2017-12-20T09:12:13.394Z,39.26
2017-12-20T09:13:23.191Z,39.36
2017-12-20T09:14:32.249Z,39.36
2017-12-20T09:15:41.225Z,39.26
2017-12-20T09:16:50.215Z,39.45
2017-12-20T09:18:00.205Z,39.26
2017-12-20T09:19:09.461Z,39.36
2017-12-20T09:20:18.443Z,39.26
2017-12-20T09:21:27.656Z,39.16
2017-12-20T09:22:36.875Z,39.26
2017-12-20T09:23:46.358Z,39.36
2017-12-20T09:24:55.037Z,39.36
2017-12-20T09:26:04.004Z,39.36
2017-12-20T09:27:13.225Z,39.26
2017-12-20T09:28:21.934Z,39.36
2017-12-20T09:29:31.938Z,39.26
2017-12-20T09:30:41.151Z,39.36
2017-12-20T09:31:50.097Z,39.45
2017-12-20T09:32:59.119Z,39.36
2017-12-20T09:34:08.077Z,39.36
2017-12-20T09:35:16.770Z,39.36
2017-12-20T09:36:25.470Z,39.36
2017-12-20T09:37:34.473Z,39.45
2017-12-20T09:38:43.711Z,39.36
2017-12-20T09:39:52.933Z,39.45
2017-12-20T09:41:02.147Z,39.45
2017-12-20T09:42:11.399Z,39.54
2017-12-20T09:43:20.339Z,39.36
2017-12-20T09:44:29.810Z,39.26
2017-12-20T09:45:39.038Z,39.36
2017-12-20T09:46:48.578Z,39.54
2017-12-20T09:47:57.554Z,39.26
2017-12-20T09:49:06.764Z,39.45
2017-12-20T09:50:15.985Z,39.36
2017-12-20T09:51:25.529Z,39.36
2017-12-20T09:52:34.741Z,39.36
2017-12-20T09:53:44.004Z,39.26
2017-12-20T09:54:53.205Z,39.36
2017-12-20T09:56:02.250Z,39.36
2017-12-20T09:57:11.207Z,39.26
2017-12-20T09:58:19.911Z,39.45
2017-12-20T09:59:29.180Z,39.45
2017-12-20T10:00:37.952Z,39.36
2017-12-20T10:01:47.705Z,39.36
2017-12-20T10:02:56.712Z,39.36
2017-12-20T10:04:05.948Z,39.45
2017-12-20T10:05:15.428Z,39.45
2017-12-20T10:06:24.917Z,39.36
2017-12-20T10:07:33.886Z,39.36
2017-12-20T10:08:42.862Z,39.36
2017-12-20T10:09:52.077Z,39.36
2017-12-20T10:11:01.051Z,39.45
2017-12-20T10:12:10.317Z,39.26
2017-12-20T10:13:19.291Z,39.45
2017-12-20T10:14:28.503Z,39.36
2017-12-20T10:15:37.701Z,39.36
2017-12-20T10:16:46.656Z,39.26
2017-12-20T10:17:56.406Z,39.36
2017-12-20T10:19:05.366Z,39.36
2017-12-20T10:20:14.910Z,39.36
2017-12-20T10:21:23.671Z,39.54
2017-12-20T10:22:32.946Z,39.36
2017-12-20T10:23:42.194Z,39.45
2017-12-20T10:24:51.181Z,39.36
2017-12-20T10:26:00.404Z,39.26
2017-12-20T10:27:09.122Z,39.45
2017-12-20T10:28:18.132Z,39.26
2017-12-20T10:29:27.366Z,39.26
2017-12-20T10:30:36.362Z,39.45
2017-12-20T10:31:45.081Z,39.36
2017-12-20T10:32:54.304Z,39.36
2017-12-20T10:34:03.511Z,39.36
2017-12-20T10:35:12.742Z,39.45
2017-12-20T10:36:22.311Z,39.36
2017-12-20T10:37:31.525Z,39.36
2017-12-20T10:38:41.015Z,39.45
2017-12-20T10:39:49.747Z,39.45
2017-12-20T10:40:58.964Z,39.45
2017-12-20T10:42:07.958Z,39.45
2017-12-20T10:43:17.186Z,39.45
2017-12-20T10:44:26.419Z,39.36
2017-12-20T10:45:35.374Z,39.45
2017-12-20T10:46:44.344Z,39.36
2017-12-20T10:47:53.828Z,39.54
2017-12-20T10:49:02.788Z,39.36
2017-12-20T10:50:12.271Z,39.36
2017-12-20T10:51:21.734Z,39.36
2017-12-20T10:52:30.965Z,39.36
2017-12-20T10:53:39.671Z,39.26
2017-12-20T10:54:48.900Z,39.26
2017-12-20T10:55:58.121Z,39.36
2017-12-20T10:57:07.351Z,39.26
2017-12-20T10:58:16.312Z,39.36
2017-12-20T10:59:25.524Z,39.45
2017-12-20T11:00:34.751Z,39.36
2017-12-20T11:01:43.451Z,39.36
2017-12-20T11:02:52.411Z,39.26
2017-12-20T11:04:01.900Z,39.36
2017-12-20T11:05:10.670Z,39.45
2017-12-20T11:06:19.614Z,39.45
2017-12-20T11:07:28.566Z,39.45
2017-12-20T11:08:37.813Z,39.45
2017-12-20T11:09:47.117Z,39.45
2017-12-20T11:10:55.964Z,39.45
2017-12-20T11:12:04.947Z,39.16
2017-12-20T11:13:13.638Z,39.54
2017-12-20T11:14:22.582Z,39.26
2017-12-20T11:15:31.538Z,39.16
2017-12-20T11:16:40.501Z,39.26
2017-12-20T11:17:49.555Z,39.26
2017-12-20T11:18:58.505Z,39.45
2017-12-20T11:20:07.485Z,39.45
2017-12-20T11:21:16.947Z,39.26
2017-12-20T11:22:26.183Z,39.45
2017-12-20T11:23:35.655Z,39.45
2017-12-20T11:24:44.602Z,39.45
2017-12-20T11:25:53.571Z,39.45
2017-12-20T11:27:02.826Z,39.45
2017-12-20T11:28:11.786Z,39.36
2017-12-20T11:29:20.740Z,39.26
2017-12-20T11:30:29.682Z,38.97
2017-12-20T11:31:38.906Z,39.26
2017-12-20T11:32:48.379Z,39.45
2017-12-20T11:33:57.341Z,39.45
2017-12-20T11:35:06.289Z,39.16
2017-12-20T11:36:16.028Z,39.45
2017-12-20T11:37:25.244Z,39.45
2017-12-20T11:38:34.449Z,39.45
2017-12-20T11:39:43.390Z,39.54
2017-12-20T11:40:52.330Z,38.97
2017-12-20T11:42:01.277Z,39.64
2017-12-20T11:43:10.292Z,39.45
2017-12-20T11:44:19.275Z,39.54
2017-12-20T11:45:28.755Z,39.06
2017-12-20T11:46:38.595Z,39.16
2017-12-20T11:47:47.561Z,38.97
2017-12-20T11:48:56.515Z,39.54
2017-12-20T11:50:05.748Z,39.16
2017-12-20T11:51:15.315Z,38.87
2017-12-20T11:52:24.532Z,39.06
2017-12-20T11:53:33.765Z,39.16
2017-12-20T11:54:43.263Z,39.36
2017-12-20T11:55:52.746Z,39.54
2017-12-20T11:57:01.964Z,39.36
2017-12-20T11:58:10.962Z,39.16
2017-12-20T11:59:20.180Z,39.45
2017-12-20T12:00:29.196Z,39.06
2017-12-20T12:01:38.143Z,39.06
2017-12-20T12:02:47.097Z,39.45
2017-12-20T12:03:55.810Z,39.16
2017-12-20T12:05:04.763Z,39.45
2017-12-20T12:06:13.735Z,39.45
2017-12-20T12:07:22.683Z,39.36
2017-12-20T12:08:31.663Z,39.36
2017-12-20T12:09:40.617Z,39.45
2017-12-20T12:10:49.831Z,39.45
2017-12-20T12:11:59.049Z,39.26
2017-12-20T12:13:08.287Z,39.45
2017-12-20T12:14:17.248Z,39.64
2017-12-20T12:15:25.972Z,39.45
2017-12-20T12:16:35.455Z,39.45
2017-12-20T12:17:44.669Z,39.45
2017-12-20T12:18:54.156Z,39.36
2017-12-20T12:20:03.686Z,39.45
2017-12-20T12:21:13.203Z,39.26
2017-12-20T12:22:22.696Z,39.36
2017-12-20T12:23:31.383Z,39.45
2017-12-20T12:24:40.340Z,39.36
2017-12-20T12:25:49.576Z,39.26
2017-12-20T12:26:58.564Z,39.26
2017-12-20T12:28:07.786Z,39.26
2017-12-20T12:29:17.020Z,39.26
2017-12-20T12:30:26.263Z,39.45
2017-12-20T12:31:35.485Z,39.26
2017-12-20T12:32:44.184Z,39.26
2017-12-20T12:33:53.395Z,39.45
2017-12-20T12:35:02.657Z,39.45
2017-12-20T12:36:11.348Z,39.45
2017-12-20T12:37:20.024Z,39.36
2017-12-20T12:38:29.541Z,39.36
2017-12-20T12:39:38.247Z,39.45
2017-12-20T12:40:47.200Z,39.26
2017-12-20T12:41:56.252Z,39.54
2017-12-20T12:43:05.728Z,39.45
2017-12-20T12:44:15.226Z,39.36
2017-12-20T12:45:24.188Z,39.45
2017-12-20T12:46:33.143Z,39.26
2017-12-20T12:47:42.088Z,39.45
2017-12-20T12:48:51.119Z,39.45
2017-12-20T12:50:00.058Z,39.36
2017-12-20T12:51:09.280Z,39.26
2017-12-20T12:52:18.234Z,39.26
2017-12-20T12:53:27.440Z,39.45
2017-12-20T12:54:36.677Z,39.36
2017-12-20T12:55:45.958Z,39.36
2017-12-20T12:56:55.705Z,39.36
2017-12-20T12:58:05.238Z,38.97
2017-12-20T12:59:14.534Z,39.36
2017-12-20T13:00:24.011Z,39.26
2017-12-20T13:01:32.954Z,39.36
2017-12-20T13:02:41.632Z,39.45
2017-12-20T13:03:50.587Z,39.26
2017-12-20T13:04:59.282Z,39.36
2017-12-20T13:06:08.235Z,39.36
2017-12-20T13:07:17.188Z,39.26
2017-12-20T13:08:26.144Z,39.26
2017-12-20T13:09:35.371Z,39.16
2017-12-20T13:10:44.059Z,39.36
2017-12-20T13:11:53.074Z,39.36
2017-12-20T13:13:02.298Z,39.26
2017-12-20T13:14:11.014Z,39.06
2017-12-20T13:15:20.499Z,39.26
2017-12-20T13:16:29.187Z,39.26
2017-12-20T13:17:38.481Z,39.26
2017-12-20T13:18:48.200Z,39.45
2017-12-20T13:19:57.143Z,39.36
2017-12-20T13:21:06.654Z,39.36
2017-12-20T13:22:15.884Z,39.36
2017-12-20T13:23:25.119Z,38.97
2017-12-20T13:24:33.890Z,39.36
2017-12-20T13:25:43.339Z,39.36
2017-12-20T13:26:52.304Z,39.36
2017-12-20T13:28:01.263Z,39.26
2017-12-20T13:29:10.536Z,39.36
2017-12-20T13:30:19.745Z,39.26
2017-12-20T13:31:29.231Z,39.16
2017-12-20T13:32:38.744Z,39.16
2017-12-20T13:33:47.946Z,39.36
2017-12-20T13:34:57.422Z,39.16
2017-12-20T13:36:06.897Z,38.97
2017-12-20T13:37:16.413Z,39.36
2017-12-20T13:38:25.380Z,39.16
2017-12-20T13:39:34.068Z,39.36
2017-12-20T13:40:43.292Z,39.26
2017-12-20T13:41:52.782Z,39.16
2017-12-20T13:43:01.722Z,39.36
2017-12-20T13:44:10.930Z,39.45
2017-12-20T13:45:19.871Z,39.06
2017-12-20T13:46:28.827Z,39.26
2017-12-20T13:47:37.813Z,39.16
2017-12-20T13:48:46.505Z,39.06
2017-12-20T13:49:55.713Z,39.45
2017-12-20T13:51:04.916Z,39.26
2017-12-20T13:52:13.601Z,39.45
2017-12-20T13:53:23.092Z,39.36
2017-12-20T13:54:32.586Z,39.36
2017-12-20T13:55:41.547Z,39.26
2017-12-20T13:56:50.532Z,39.06
2017-12-20T13:58:00.015Z,39.36
2017-12-20T13:59:09.785Z,39.45
2017-12-20T14:00:19.016Z,39.16
2017-12-20T14:01:28.261Z,39.36
2017-12-20T14:02:37.204Z,39.26
2017-12-20T14:03:46.411Z,39.36
2017-12-20T14:04:55.366Z,39.54
2017-12-20T14:06:04.585Z,39.16
2017-12-20T14:07:13.558Z,39.26
2017-12-20T14:08:22.767Z,39.16
2017-12-20T14:09:31.741Z,39.16
2017-12-20T14:10:40.437Z,39.45
2017-12-20T14:11:49.132Z,39.26
2017-12-20T14:12:58.357Z,39.16
2017-12-20T14:14:07.599Z,39.36
2017-12-20T14:15:16.838Z,39.16
2017-12-20T14:16:26.054Z,39.36
2017-12-20T14:17:34.772Z,39.36
2017-12-20T14:18:44.004Z,39.06
2017-12-20T14:19:53.501Z,39.26
2017-12-20T14:21:02.726Z,39.06
2017-12-20T14:22:11.436Z,39.06
2017-12-20T14:23:21.200Z,39.06
2017-12-20T14:24:30.691Z,39.36
2017-12-20T14:25:39.387Z,39.16
2017-12-20T14:26:48.860Z,39.16
2017-12-20T14:27:57.834Z,39.16
2017-12-20T14:29:06.863Z,39.06
2017-12-20T14:30:15.831Z,39.06
2017-12-20T14:31:24.539Z,39.36
2017-12-20T14:32:33.783Z,39.26
2017-12-20T14:33:42.757Z,39.36
2017-12-20T14:34:51.750Z,39.26
2017-12-20T14:36:00.696Z,39.16
2017-12-20T14:37:09.438Z,39.26
2017-12-20T14:38:18.932Z,39.26
2017-12-20T14:39:28.427Z,39.16
2017-12-20T14:40:37.108Z,39.36
2017-12-20T14:41:46.328Z,39.54
2017-12-20T14:42:55.537Z,39.45
2017-12-20T14:44:05.025Z,39.45
2017-12-20T14:45:14.506Z,39.64
2017-12-20T14:46:23.754Z,39.45
2017-12-20T14:47:32.720Z,39.54
2017-12-20T14:48:41.669Z,39.64
2017-12-20T14:49:50.874Z,39.45
2017-12-20T14:50:59.567Z,39.64